Terminal Aerodrome Forecast
Issued by NWS

Home | Current Version | Previous Version | Text Only | Print | Product List | Glossary Off
Versions: 1 2 3 4 5 6 7 8 9 10 11 12 13 14 15 16 17 18 19 20 21 22 23 24 25

000
FTUS43 KGRB 080000 AAB
TAFAUW
TAF AMD
KAUW 080057Z 0801/0824 23009KT P6SM BKN080
     FM080145 23010KT 6SM BR SCT020 BKN035
      TEMPO 0802/0804 2SM +TSRA OVC020CB
     FM080600 26005KT 5SM -SHRA BR SCT008 OVC020
     FM081000 29004KT 5SM BR SCT006 OVC015
     FM081500 29011KT P6SM VCSH SCT020 BKN040=

USA.gov is the U.S. government's official web portal to all federal, state and local government web resources and services.